sensor_id;sensor_type;location;lat;lon;timestamp;pressure;altitude;pressure_sealevel;temperature;humidity
19751;BME280;4663;49.120;9.730;2023-05-20T00:01:58;98227.38;;;12.12;85.41
19751;BME280;4663;49.120;9.730;2023-05-20T00:04:23;98226.19;;;12.23;86.23
19751;BME280;4663;49.120;9.730;2023-05-20T00:06:49;98216.16;;;12.50;84.29
19751;BME280;4663;49.120;9.730;2023-05-20T00:09:15;98224.38;;;12.31;85.27
19751;BME280;4663;49.120;9.730;2023-05-20T00:11:41;98228.56;;;12.42;84.93
19751;BME280;4663;49.120;9.730;2023-05-20T00:14:07;98224.38;;;12.40;84.98
19751;BME280;4663;49.120;9.730;2023-05-20T00:16:32;98229.75;;;12.48;84.57
19751;BME280;4663;49.120;9.730;2023-05-20T00:18:58;98223.38;;;12.49;85.10
19751;BME280;4663;49.120;9.730;2023-05-20T00:21:23;98221.19;;;12.44;85.08
19751;BME280;4663;49.120;9.730;2023-05-20T00:23:48;98220.34;;;12.61;84.10
19751;BME280;4663;49.120;9.730;2023-05-20T00:26:14;98214.09;;;12.18;85.12
19751;BME280;4663;49.120;9.730;2023-05-20T00:28:40;98221.38;;;12.51;85.20
19751;BME280;4663;49.120;9.730;2023-05-20T00:31:05;98214.97;;;12.44;86.35
19751;BME280;4663;49.120;9.730;2023-05-20T00:33:31;98216.63;;;12.45;85.57
19751;BME280;4663;49.120;9.730;2023-05-20T00:35:56;98213.63;;;12.56;84.74
19751;BME280;4663;49.120;9.730;2023-05-20T00:38:22;98214.78;;;12.62;84.88
19751;BME280;4663;49.120;9.730;2023-05-20T00:40:47;98218.94;;;12.06;86.98
19751;BME280;4663;49.120;9.730;2023-05-20T00:43:12;98221.34;;;12.35;86.29
19751;BME280;4663;49.120;9.730;2023-05-20T00:45:38;98217.78;;;12.09;86.92
19751;BME280;4663;49.120;9.730;2023-05-20T00:48:04;98216.31;;;12.23;87.81
19751;BME280;4663;49.120;9.730;2023-05-20T00:50:30;98215.28;;;12.16;87.33
19751;BME280;4663;49.120;9.730;2023-05-20T00:52:56;98214.78;;;12.20;87.58
19751;BME280;4663;49.120;9.730;2023-05-20T00:55:23;98208.91;;;12.33;86.62
19751;BME280;4663;49.120;9.730;2023-05-20T00:57:49;98204.81;;;11.88;88.85
19751;BME280;4663;49.120;9.730;2023-05-20T01:00:14;98198.75;;;11.94;89.96
19751;BME280;4663;49.120;9.730;2023-05-20T01:02:40;98199.50;;;12.54;88.10
19751;BME280;4663;49.120;9.730;2023-05-20T01:05:06;98201.66;;;12.26;88.54
19751;BME280;4663;49.120;9.730;2023-05-20T01:07:32;98195.28;;;12.52;87.62
19751;BME280;4663;49.120;9.730;2023-05-20T01:09:58;98191.06;;;12.49;86.74
19751;BME280;4663;49.120;9.730;2023-05-20T01:12:27;98195.09;;;12.62;86.22
19751;BME280;4663;49.120;9.730;2023-05-20T01:15:02;98191.44;;;12.63;85.57
19751;BME280;4663;49.120;9.730;2023-05-20T01:17:31;98188.00;;;12.02;88.93
19751;BME280;4663;49.120;9.730;2023-05-20T01:19:58;98191.78;;;12.35;87.91
19751;BME280;4663;49.120;9.730;2023-05-20T01:22:25;98180.00;;;12.44;87.56
19751;BME280;4663;49.120;9.730;2023-05-20T01:24:51;98181.81;;;12.43;88.05
19751;BME280;4663;49.120;9.730;2023-05-20T01:27:20;98180.47;;;12.48;88.26
19751;BME280;4663;49.120;9.730;2023-05-20T01:29:47;98178.81;;;12.38;88.73
19751;BME280;4663;49.120;9.730;2023-05-20T01:32:23;98180.16;;;12.26;90.14
19751;BME280;4663;49.120;9.730;2023-05-20T01:34:51;98178.16;;;12.44;89.14
19751;BME280;4663;49.120;9.730;2023-05-20T01:37:18;98174.09;;;12.57;86.64
19751;BME280;4663;49.120;9.730;2023-05-20T01:39:44;98172.22;;;12.57;86.68
19751;BME280;4663;49.120;9.730;2023-05-20T01:42:10;98186.72;;;12.40;88.10
19751;BME280;4663;49.120;9.730;2023-05-20T01:44:38;98172.56;;;12.46;88.16
19751;BME280;4663;49.120;9.730;2023-05-20T01:47:04;98170.72;;;12.05;90.07
19751;BME280;4663;49.120;9.730;2023-05-20T01:49:29;98173.25;;;12.23;89.47
19751;BME280;4663;49.120;9.730;2023-05-20T01:51:55;98164.16;;;11.99;89.12
19751;BME280;4663;49.120;9.730;2023-05-20T01:54:21;98167.88;;;12.31;89.14
19751;BME280;4663;49.120;9.730;2023-05-20T01:56:46;98170.09;;;12.44;88.11
19751;BME280;4663;49.120;9.730;2023-05-20T01:59:12;98164.00;;;12.42;88.27
19751;BME280;4663;49.120;9.730;2023-05-20T02:01:37;98164.19;;;12.24;88.60
19751;BME280;4663;49.120;9.730;2023-05-20T02:04:03;98165.84;;;12.17;89.20
19751;BME280;4663;49.120;9.730;2023-05-20T02:06:28;98160.63;;;11.99;90.46
19751;BME280;4663;49.120;9.730;2023-05-20T02:08:54;98167.19;;;12.13;89.91
19751;BME280;4663;49.120;9.730;2023-05-20T02:11:19;98172.25;;;12.24;89.01
19751;BME280;4663;49.120;9.730;2023-05-20T02:13:45;98169.56;;;12.16;89.20
19751;BME280;4663;49.120;9.730;2023-05-20T02:16:10;98167.34;;;11.94;90.29
19751;BME280;4663;49.120;9.730;2023-05-20T02:18:36;98163.66;;;11.95;89.92
19751;BME280;4663;49.120;9.730;2023-05-20T02:21:02;98163.31;;;12.15;89.03
19751;BME280;4663;49.120;9.730;2023-05-20T02:23:28;98157.59;;;11.93;90.55
19751;BME280;4663;49.120;9.730;2023-05-20T02:25:53;98161.50;;;12.07;89.16
19751;BME280;4663;49.120;9.730;2023-05-20T02:28:19;98161.31;;;12.01;89.81
19751;BME280;4663;49.120;9.730;2023-05-20T02:30:44;98157.47;;;12.28;88.43
19751;BME280;4663;49.120;9.730;2023-05-20T02:33:10;98157.13;;;12.31;87.98
19751;BME280;4663;49.120;9.730;2023-05-20T02:35:36;98156.09;;;11.91;89.33
19751;BME280;4663;49.120;9.730;2023-05-20T02:38:01;98155.59;;;12.12;89.91
19751;BME280;4663;49.120;9.730;2023-05-20T02:40:27;98163.66;;;12.12;88.76
19751;BME280;4663;49.120;9.730;2023-05-20T02:42:52;98166.25;;;11.71;91.40
19751;BME280;4663;49.120;9.730;2023-05-20T02:45:17;98167.19;;;11.96;90.92
19751;BME280;4663;49.120;9.730;2023-05-20T02:47:43;98158.09;;;11.97;90.22
19751;BME280;4663;49.120;9.730;2023-05-20T02:50:08;98163.47;;;11.89;90.13
19751;BME280;4663;49.120;9.730;2023-05-20T02:52:34;98158.09;;;11.97;90.03
19751;BME280;4663;49.120;9.730;2023-05-20T02:55:00;98162.16;;;12.10;89.98
19751;BME280;4663;49.120;9.730;2023-05-20T02:57:25;98166.53;;;12.11;88.06
19751;BME280;4663;49.120;9.730;2023-05-20T02:59:53;98161.81;;;12.21;88.08
19751;BME280;4663;49.120;9.730;2023-05-20T03:02:19;98164.50;;;12.13;88.40
19751;BME280;4663;49.120;9.730;2023-05-20T03:04:44;98158.81;;;12.24;88.38
19751;BME280;4663;49.120;9.730;2023-05-20T03:07:10;98162.19;;;12.35;86.71
19751;BME280;4663;49.120;9.730;2023-05-20T03:09:36;98152.41;;;12.08;87.17
19751;BME280;4663;49.120;9.730;2023-05-20T03:12:02;98157.44;;;12.03;88.86
19751;BME280;4663;49.120;9.730;2023-05-20T03:14:27;98151.38;;;12.01;88.68
19751;BME280;4663;49.120;9.730;2023-05-20T03:16:53;98153.41;;;12.16;88.06
19751;BME280;4663;49.120;9.730;2023-05-20T03:19:21;98156.41;;;11.79;89.75
19751;BME280;4663;49.120;9.730;2023-05-20T03:21:47;98153.56;;;11.89;89.27
19751;BME280;4663;49.120;9.730;2023-05-20T03:24:13;98151.88;;;11.88;89.89
19751;BME280;4663;49.120;9.730;2023-05-20T03:26:38;98150.03;;;12.05;88.10
19751;BME280;4663;49.120;9.730;2023-05-20T03:29:08;98161.00;;;12.20;87.53
19751;BME280;4663;49.120;9.730;2023-05-20T03:31:33;98155.59;;;12.12;87.92
19751;BME280;4663;49.120;9.730;2023-05-20T03:33:59;98160.00;;;12.22;87.43
19751;BME280;4663;49.120;9.730;2023-05-20T03:36:24;98157.63;;;12.02;88.36
19751;BME280;4663;49.120;9.730;2023-05-20T03:38:49;98161.81;;;12.13;87.92
19751;BME280;4663;49.120;9.730;2023-05-20T03:41:15;98160.13;;;12.03;88.54
19751;BME280;4663;49.120;9.730;2023-05-20T03:43:40;98153.75;;;12.13;88.11
19751;BME280;4663;49.120;9.730;2023-05-20T03:46:06;98154.59;;;12.13;87.94
19751;BME280;4663;49.120;9.730;2023-05-20T03:48:31;98153.91;;;11.86;89.01
19751;BME280;4663;49.120;9.730;2023-05-20T03:50:56;98146.88;;;12.10;88.43
19751;BME280;4663;49.120;9.730;2023-05-20T03:53:22;98147.03;;;12.00;88.46
19751;BME280;4663;49.120;9.730;2023-05-20T03:55:47;98148.84;;;11.83;89.07
19751;BME280;4663;49.120;9.730;2023-05-20T03:58:13;98164.63;;;11.78;90.54
19751;BME280;4663;49.120;9.730;2023-05-20T04:00:39;98154.06;;;11.93;89.18
19751;BME280;4663;49.120;9.730;2023-05-20T04:03:05;98157.63;;;12.02;88.70
19751;BME280;4663;49.120;9.730;2023-05-20T04:05:31;98164.50;;;12.13;87.60
19751;BME280;4663;49.120;9.730;2023-05-20T04:07:56;98159.44;;;11.93;88.88
19751;BME280;4663;49.120;9.730;2023-05-20T04:10:22;98158.78;;;11.91;88.82
19751;BME280;4663;49.120;9.730;2023-05-20T04:12:48;98165.69;;;12.10;88.46
19751;BME280;4663;49.120;9.730;2023-05-20T04:15:14;98168.53;;;12.25;88.31
19751;BME280;4663;49.120;9.730;2023-05-20T04:17:40;98161.50;;;12.24;89.27
19751;BME280;4663;49.120;9.730;2023-05-20T04:20:06;98165.00;;;12.58;87.96
19751;BME280;4663;49.120;9.730;2023-05-20T04:22:32;98146.66;;;12.70;87.13
19751;BME280;4663;49.120;9.730;2023-05-20T04:24:58;98149.69;;;12.75;86.82
19751;BME280;4663;49.120;9.730;2023-05-20T04:27:24;98152.84;;;12.87;86.44
19751;BME280;4663;49.120;9.730;2023-05-20T04:29:50;98148.13;;;13.06;85.88
19751;BME280;4663;49.120;9.730;2023-05-20T04:32:18;98155.84;;;13.49;85.39
19751;BME280;4663;49.120;9.730;2023-05-20T04:34:45;98159.38;;;13.81;85.21
19751;BME280;4663;49.120;9.730;2023-05-20T04:37:11;98155.53;;;14.31;84.24
19751;BME280;4663;49.120;9.730;2023-05-20T04:39:37;98143.09;;;14.06;81.92
19751;BME280;4663;49.120;9.730;2023-05-20T04:42:03;98142.09;;;13.99;83.56
19751;BME280;4663;49.120;9.730;2023-05-20T04:44:29;98151.75;;;13.93;84.13
19751;BME280;4663;49.120;9.730;2023-05-20T04:46:55;98144.97;;;13.74;84.70
19751;BME280;4663;49.120;9.730;2023-05-20T04:49:22;98148.19;;;13.93;84.81
19751;BME280;4663;49.120;9.730;2023-05-20T04:51:50;98134.13;;;14.29;82.83
19751;BME280;4663;49.120;9.730;2023-05-20T04:54:16;98133.84;;;14.62;82.44
19751;BME280;4663;49.120;9.730;2023-05-20T04:56:42;98131.34;;;15.36;81.53
19751;BME280;4663;49.120;9.730;2023-05-20T04:59:08;98125.75;;;14.62;79.31
19751;BME280;4663;49.120;9.730;2023-05-20T05:01:35;98146.09;;;14.11;83.11
19751;BME280;4663;49.120;9.730;2023-05-20T05:04:01;98130.13;;;14.63;82.67
19751;BME280;4663;49.120;9.730;2023-05-20T05:06:26;98130.78;;;14.65;81.59
19751;BME280;4663;49.120;9.730;2023-05-20T05:08:51;98135.63;;;14.70;82.71
19751;BME280;4663;49.120;9.730;2023-05-20T05:11:17;98130.72;;;14.74;81.13
19751;BME280;4663;49.120;9.730;2023-05-20T05:13:42;98134.91;;;14.91;81.29
19751;BME280;4663;49.120;9.730;2023-05-20T05:16:08;98138.31;;;14.55;81.65
19751;BME280;4663;49.120;9.730;2023-05-20T05:18:33;98136.47;;;14.71;81.05
19751;BME280;4663;49.120;9.730;2023-05-20T05:21:03;98130.34;;;15.07;80.79
19751;BME280;4663;49.120;9.730;2023-05-20T05:23:29;98129.69;;;14.75;81.24
19751;BME280;4663;49.120;9.730;2023-05-20T05:25:55;98132.28;;;14.83;80.44
19751;BME280;4663;49.120;9.730;2023-05-20T05:28:20;98125.25;;;15.27;80.68
19751;BME280;4663;49.120;9.730;2023-05-20T05:30:46;98128.31;;;16.42;79.81
19751;BME280;4663;49.120;9.730;2023-05-20T05:33:15;98117.69;;;16.40;76.45
19751;BME280;4663;49.120;9.730;2023-05-20T05:35:41;98105.75;;;16.92;76.16
19751;BME280;4663;49.120;9.730;2023-05-20T05:38:07;98100.34;;;16.63;75.07
19751;BME280;4663;49.120;9.730;2023-05-20T05:40:33;98114.03;;;16.83;77.98
19751;BME280;4663;49.120;9.730;2023-05-20T05:42:59;98109.63;;;16.47;75.65
19751;BME280;4663;49.120;9.730;2023-05-20T05:45:24;98113.50;;;16.66;75.23
19751;BME280;4663;49.120;9.730;2023-05-20T05:47:50;98115.16;;;16.96;76.02
19751;BME280;4663;49.120;9.730;2023-05-20T05:50:15;98122.22;;;17.81;73.87
19751;BME280;4663;49.120;9.730;2023-05-20T05:52:41;98131.28;;;17.04;74.18
19751;BME280;4663;49.120;9.730;2023-05-20T05:55:07;98119.66;;;17.11;74.65
19751;BME280;4663;49.120;9.730;2023-05-20T05:57:33;98112.69;;;17.01;74.86
19751;BME280;4663;49.120;9.730;2023-05-20T05:59:58;98107.72;;;17.54;73.93
19751;BME280;4663;49.120;9.730;2023-05-20T06:02:25;98107.81;;;17.25;74.56
19751;BME280;4663;49.120;9.730;2023-05-20T06:04:50;98114.78;;;17.41;74.44
19751;BME280;4663;49.120;9.730;2023-05-20T06:07:15;98115.56;;;17.35;74.63
19751;BME280;4663;49.120;9.730;2023-05-20T06:09:41;98105.63;;;17.49;74.71
19751;BME280;4663;49.120;9.730;2023-05-20T06:12:06;98107.47;;;18.11;72.98
19751;BME280;4663;49.120;9.730;2023-05-20T06:14:32;98115.72;;;17.76;74.14
19751;BME280;4663;49.120;9.730;2023-05-20T06:16:57;98107.88;;;18.48;72.28
19751;BME280;4663;49.120;9.730;2023-05-20T06:19:22;98102.66;;;18.54;72.73
19751;BME280;4663;49.120;9.730;2023-05-20T06:21:48;98095.34;;;18.74;70.55
19751;BME280;4663;49.120;9.730;2023-05-20T06:24:13;98097.63;;;18.50;70.77
19751;BME280;4663;49.120;9.730;2023-05-20T06:26:39;98094.53;;;17.99;71.40
19751;BME280;4663;49.120;9.730;2023-05-20T06:29:04;98101.19;;;18.58;71.60
19751;BME280;4663;49.120;9.730;2023-05-20T06:31:29;98095.34;;;18.41;71.47
19751;BME280;4663;49.120;9.730;2023-05-20T06:33:55;98096.16;;;18.95;73.38
19751;BME280;4663;49.120;9.730;2023-05-20T06:36:20;98082.41;;;18.63;72.58
19751;BME280;4663;49.120;9.730;2023-05-20T06:38:46;98078.50;;;19.25;69.77
19751;BME280;4663;49.120;9.730;2023-05-20T06:41:11;98077.31;;;19.00;70.92
19751;BME280;4663;49.120;9.730;2023-05-20T06:43:37;98064.00;;;18.79;69.99
19751;BME280;4663;49.120;9.730;2023-05-20T06:46:03;98075.97;;;19.23;71.35
19751;BME280;4663;49.120;9.730;2023-05-20T06:48:31;98057.03;;;19.56;67.64
19751;BME280;4663;49.120;9.730;2023-05-20T06:50:57;98058.06;;;19.48;68.56
19751;BME280;4663;49.120;9.730;2023-05-20T06:53:25;98050.53;;;19.57;67.63
19751;BME280;4663;49.120;9.730;2023-05-20T06:55:52;98060.94;;;19.21;69.38
19751;BME280;4663;49.120;9.730;2023-05-20T06:58:19;98050.84;;;19.35;68.93
19751;BME280;4663;49.120;9.730;2023-05-20T07:00:46;98060.13;;;19.66;68.69
19751;BME280;4663;49.120;9.730;2023-05-20T07:03:11;98053.94;;;19.84;68.15
19751;BME280;4663;49.120;9.730;2023-05-20T07:05:36;98056.19;;;19.48;69.68
19751;BME280;4663;49.120;9.730;2023-05-20T07:08:02;98067.34;;;19.40;68.06
19751;BME280;4663;49.120;9.730;2023-05-20T07:10:28;98060.06;;;20.56;68.17
19751;BME280;4663;49.120;9.730;2023-05-20T07:12:53;98048.09;;;20.06;65.83
19751;BME280;4663;49.120;9.730;2023-05-20T07:15:19;98058.38;;;19.33;68.10
19751;BME280;4663;49.120;9.730;2023-05-20T07:17:44;98061.75;;;20.76;67.66
19751;BME280;4663;49.120;9.730;2023-05-20T07:20:10;98049.28;;;20.42;66.37
19751;BME280;4663;49.120;9.730;2023-05-20T07:22:35;98042.94;;;19.65;66.23
19751;BME280;4663;49.120;9.730;2023-05-20T07:25:01;98052.50;;;20.58;66.57
19751;BME280;4663;49.120;9.730;2023-05-20T07:27:26;98057.53;;;20.36;66.35
19751;BME280;4663;49.120;9.730;2023-05-20T07:29:51;98048.31;;;20.04;66.50
19751;BME280;4663;49.120;9.730;2023-05-20T07:32:17;98049.88;;;20.19;66.74
19751;BME280;4663;49.120;9.730;2023-05-20T07:34:42;98035.56;;;20.30;65.80
19751;BME280;4663;49.120;9.730;2023-05-20T07:37:07;98046.31;;;20.88;65.19
19751;BME280;4663;49.120;9.730;2023-05-20T07:39:34;98034.59;;;22.10;64.01
19751;BME280;4663;49.120;9.730;2023-05-20T07:41:59;98017.38;;;22.34;60.88
19751;BME280;4663;49.120;9.730;2023-05-20T07:44:25;98030.09;;;22.28;63.18
19751;BME280;4663;49.120;9.730;2023-05-20T07:46:50;98028.91;;;21.69;62.37
19751;BME280;4663;49.120;9.730;2023-05-20T07:49:16;98025.19;;;21.02;63.96
19751;BME280;4663;49.120;9.730;2023-05-20T07:51:41;98027.75;;;21.16;63.76
19751;BME280;4663;49.120;9.730;2023-05-20T07:54:07;98018.06;;;21.01;63.75
19751;BME280;4663;49.120;9.730;2023-05-20T07:56:32;98037.78;;;19.50;67.31
19751;BME280;4663;49.120;9.730;2023-05-20T07:58:59;98026.22;;;19.94;65.55
19751;BME280;4663;49.120;9.730;2023-05-20T08:01:25;98029.47;;;20.54;65.95
19751;BME280;4663;49.120;9.730;2023-05-20T08:03:51;98006.09;;;20.84;63.83
19751;BME280;4663;49.120;9.730;2023-05-20T08:06:17;98018.88;;;21.39;65.11
19751;BME280;4663;49.120;9.730;2023-05-20T08:08:45;98006.84;;;21.59;62.68
19751;BME280;4663;49.120;9.730;2023-05-20T08:11:10;98000.63;;;21.02;63.91
19751;BME280;4663;49.120;9.730;2023-05-20T08:13:35;98019.03;;;20.69;64.61
19751;BME280;4663;49.120;9.730;2023-05-20T08:16:01;98010.47;;;20.47;64.67
19751;BME280;4663;49.120;9.730;2023-05-20T08:18:34;98006.78;;;21.16;64.47
19751;BME280;4663;49.120;9.730;2023-05-20T08:21:00;97999.97;;;21.68;63.23
19751;BME280;4663;49.120;9.730;2023-05-20T08:23:26;98006.47;;;22.22;62.37
19751;BME280;4663;49.120;9.730;2023-05-20T08:25:52;97998.84;;;22.48;61.56
19751;BME280;4663;49.120;9.730;2023-05-20T08:28:17;98004.25;;;22.96;61.00
19751;BME280;4663;49.120;9.730;2023-05-20T08:30:43;98006.47;;;22.46;60.93
19751;BME280;4663;49.120;9.730;2023-05-20T08:33:08;98013.53;;;23.07;59.62
19751;BME280;4663;49.120;9.730;2023-05-20T08:35:34;98013.81;;;22.45;61.44
19751;BME280;4663;49.120;9.730;2023-05-20T08:37:59;98011.47;;;22.37;61.63
19751;BME280;4663;49.120;9.730;2023-05-20T08:40:26;98018.50;;;22.69;61.53
19751;BME280;4663;49.120;9.730;2023-05-20T08:42:51;98004.47;;;22.05;61.28
19751;BME280;4663;49.120;9.730;2023-05-20T08:45:19;98006.38;;;21.74;61.95
19751;BME280;4663;49.120;9.730;2023-05-20T08:47:45;98014.19;;;22.01;62.72
19751;BME280;4663;49.120;9.730;2023-05-20T08:50:12;98003.38;;;22.06;61.58
19751;BME280;4663;49.120;9.730;2023-05-20T08:52:42;97992.97;;;23.62;60.29
19751;BME280;4663;49.120;9.730;2023-05-20T08:55:13;97996.97;;;22.48;60.41
19751;BME280;4663;49.120;9.730;2023-05-20T08:57:39;98016.59;;;22.33;62.05
19751;BME280;4663;49.120;9.730;2023-05-20T09:00:07;98002.56;;;22.66;61.15
19751;BME280;4663;49.120;9.730;2023-05-20T09:02:37;98001.94;;;22.40;61.26
19751;BME280;4663;49.120;9.730;2023-05-20T09:05:03;98011.47;;;22.61;61.63
19751;BME280;4663;49.120;9.730;2023-05-20T09:07:29;97991.38;;;22.31;60.80
19751;BME280;4663;49.120;9.730;2023-05-20T09:09:56;98015.72;;;22.09;62.73
19751;BME280;4663;49.120;9.730;2023-05-20T09:12:21;98008.38;;;20.68;62.76
19751;BME280;4663;49.120;9.730;2023-05-20T09:14:47;97988.19;;;22.58;60.68
19751;BME280;4663;49.120;9.730;2023-05-20T09:17:12;98000.28;;;23.16;62.04
19751;BME280;4663;49.120;9.730;2023-05-20T09:19:38;97993.41;;;22.12;60.54
19751;BME280;4663;49.120;9.730;2023-05-20T09:22:03;97987.94;;;22.00;61.06
19751;BME280;4663;49.120;9.730;2023-05-20T09:24:29;98002.88;;;21.86;61.26
19751;BME280;4663;49.120;9.730;2023-05-20T09:26:55;97989.47;;;22.20;60.71
19751;BME280;4663;49.120;9.730;2023-05-20T09:29:22;97991.03;;;22.40;60.99
19751;BME280;4663;49.120;9.730;2023-05-20T09:31:48;98006.28;;;21.38;62.27
19751;BME280;4663;49.120;9.730;2023-05-20T09:34:14;97994.78;;;21.48;61.73
19751;BME280;4663;49.120;9.730;2023-05-20T09:36:42;98000.03;;;21.00;61.77
19751;BME280;4663;49.120;9.730;2023-05-20T09:39:15;97985.47;;;21.68;60.67
19751;BME280;4663;49.120;9.730;2023-05-20T09:42:13;98004.78;;;21.54;61.41
19751;BME280;4663;49.120;9.730;2023-05-20T09:44:41;97996.88;;;21.65;61.33
19751;BME280;4663;49.120;9.730;2023-05-20T09:47:07;97995.59;;;20.87;62.50
19751;BME280;4663;49.120;9.730;2023-05-20T09:49:34;97992.75;;;21.74;61.81
19751;BME280;4663;49.120;9.730;2023-05-20T09:52:02;97986.41;;;21.92;61.19
19751;BME280;4663;49.120;9.730;2023-05-20T09:54:28;97977.38;;;22.28;60.85
19751;BME280;4663;49.120;9.730;2023-05-20T09:56:57;97977.16;;;22.29;60.85
19751;BME280;4663;49.120;9.730;2023-05-20T09:59:23;97987.44;;;22.75;60.26
19751;BME280;4663;49.120;9.730;2023-05-20T10:01:51;97966.59;;;21.54;59.54
19751;BME280;4663;49.120;9.730;2023-05-20T10:04:17;97993.47;;;21.81;61.35
19751;BME280;4663;49.120;9.730;2023-05-20T10:20:58;97955.56;;;22.93;60.19
19751;BME280;4663;49.120;9.730;2023-05-20T10:23:27;97955.41;;;22.10;61.17
19751;BME280;4663;49.120;9.730;2023-05-20T10:25:54;97958.63;;;22.07;62.36
19751;BME280;4663;49.120;9.730;2023-05-20T10:28:34;97955.25;;;22.77;61.73
19751;BME280;4663;49.120;9.730;2023-05-20T10:31:14;97943.78;;;23.50;60.40
19751;BME280;4663;49.120;9.730;2023-05-20T10:33:42;97935.78;;;22.61;59.15
19751;BME280;4663;49.120;9.730;2023-05-20T10:36:08;97949.13;;;22.22;61.67
19751;BME280;4663;49.120;9.730;2023-05-20T10:38:33;97930.91;;;22.52;59.94
19751;BME280;4663;49.120;9.730;2023-05-20T10:41:08;97938.31;;;22.92;60.70
19751;BME280;4663;49.120;9.730;2023-05-20T10:43:35;97927.72;;;23.25;58.81
19751;BME280;4663;49.120;9.730;2023-05-20T10:46:01;97932.13;;;22.32;59.92
19751;BME280;4663;49.120;9.730;2023-05-20T10:48:28;97944.13;;;22.19;61.00
19751;BME280;4663;49.120;9.730;2023-05-20T10:50:55;97934.75;;;21.91;60.83
19751;BME280;4663;49.120;9.730;2023-05-20T10:53:22;97929.16;;;22.33;60.15
19751;BME280;4663;49.120;9.730;2023-05-20T10:55:49;97915.91;;;22.01;60.37
19751;BME280;4663;49.120;9.730;2023-05-20T10:58:21;97925.13;;;22.24;60.41
19751;BME280;4663;49.120;9.730;2023-05-20T11:00:47;97927.38;;;22.92;60.26
19751;BME280;4663;49.120;9.730;2023-05-20T11:03:15;97931.22;;;22.79;60.50
19751;BME280;4663;49.120;9.730;2023-05-20T11:05:40;97918.31;;;22.63;60.19
19751;BME280;4663;49.120;9.730;2023-05-20T11:08:07;97912.00;;;22.74;59.41
19751;BME280;4663;49.120;9.730;2023-05-20T11:10:33;97915.50;;;22.57;60.29
19751;BME280;4663;49.120;9.730;2023-05-20T11:13:01;97918.88;;;22.77;60.35
19751;BME280;4663;49.120;9.730;2023-05-20T11:15:27;97904.63;;;23.50;58.87
19751;BME280;4663;49.120;9.730;2023-05-20T11:17:55;97899.09;;;22.86;60.51
19751;BME280;4663;49.120;9.730;2023-05-20T11:20:22;97900.41;;;22.43;60.75
19751;BME280;4663;49.120;9.730;2023-05-20T11:22:50;97899.00;;;23.10;59.84
19751;BME280;4663;49.120;9.730;2023-05-20T11:25:16;97902.38;;;22.71;60.67
19751;BME280;4663;49.120;9.730;2023-05-20T11:27:43;97908.00;;;22.41;61.02
19751;BME280;4663;49.120;9.730;2023-05-20T11:30:10;97896.03;;;22.18;60.78
19751;BME280;4663;49.120;9.730;2023-05-20T11:32:36;97894.94;;;21.71;61.47
19751;BME280;4663;49.120;9.730;2023-05-20T11:35:01;97905.63;;;21.84;61.98
19751;BME280;4663;49.120;9.730;2023-05-20T11:37:27;97889.97;;;22.16;61.18
19751;BME280;4663;49.120;9.730;2023-05-20T11:40:06;97892.28;;;22.48;60.89
19751;BME280;4663;49.120;9.730;2023-05-20T11:42:32;97878.75;;;22.94;59.86
19751;BME280;4663;49.120;9.730;2023-05-20T11:45:01;97882.31;;;22.95;59.40
19751;BME280;4663;49.120;9.730;2023-05-20T11:47:26;97886.84;;;23.18;60.29
19751;BME280;4663;49.120;9.730;2023-05-20T11:49:52;97882.47;;;22.88;59.63
19751;BME280;4663;49.120;9.730;2023-05-20T11:52:17;97868.75;;;23.00;60.00
19751;BME280;4663;49.120;9.730;2023-05-20T11:54:43;97889.81;;;22.58;60.39
19751;BME280;4663;49.120;9.730;2023-05-20T11:57:10;97887.09;;;22.34;61.03
19751;BME280;4663;49.120;9.730;2023-05-20T11:59:36;97872.34;;;22.59;60.80
19751;BME280;4663;49.120;9.730;2023-05-20T12:02:01;97873.00;;;23.25;60.61
19751;BME280;4663;49.120;9.730;2023-05-20T12:04:27;97856.31;;;22.63;59.87
19751;BME280;4663;49.120;9.730;2023-05-20T12:06:52;97865.41;;;22.28;60.93
19751;BME280;4663;49.120;9.730;2023-05-20T12:09:17;97856.06;;;22.65;60.48
19751;BME280;4663;49.120;9.730;2023-05-20T12:11:43;97852.06;;;23.31;58.23
19751;BME280;4663;49.120;9.730;2023-05-20T12:14:09;97859.56;;;23.23;58.99
19751;BME280;4663;49.120;9.730;2023-05-20T12:16:35;97865.56;;;23.37;59.32
19751;BME280;4663;49.120;9.730;2023-05-20T12:19:01;97847.75;;;23.06;58.83
19751;BME280;4663;49.120;9.730;2023-05-20T12:21:28;97854.25;;;22.70;60.04
19751;BME280;4663;49.120;9.730;2023-05-20T12:23:54;97841.16;;;23.19;58.66
19751;BME280;4663;49.120;9.730;2023-05-20T12:26:23;97839.03;;;22.92;58.41
19751;BME280;4663;49.120;9.730;2023-05-20T12:28:49;97838.81;;;23.10;57.49
19751;BME280;4663;49.120;9.730;2023-05-20T12:31:15;97849.81;;;23.45;58.63
19751;BME280;4663;49.120;9.730;2023-05-20T12:33:40;97842.16;;;23.81;57.58
19751;BME280;4663;49.120;9.730;2023-05-20T12:36:06;97819.56;;;24.08;56.89
19751;BME280;4663;49.120;9.730;2023-05-20T12:38:31;97830.81;;;23.55;56.97
19751;BME280;4663;49.120;9.730;2023-05-20T12:40:57;97830.22;;;23.19;56.64
19751;BME280;4663;49.120;9.730;2023-05-20T12:43:23;97828.06;;;23.72;57.74
19751;BME280;4663;49.120;9.730;2023-05-20T12:45:48;97835.72;;;23.70;55.74
19751;BME280;4663;49.120;9.730;2023-05-20T12:48:14;97840.16;;;23.76;56.61
19751;BME280;4663;49.120;9.730;2023-05-20T12:50:39;97830.44;;;23.46;57.91
19751;BME280;4663;49.120;9.730;2023-05-20T12:53:04;97826.09;;;23.68;56.11
19751;BME280;4663;49.120;9.730;2023-05-20T12:55:30;97825.22;;;23.84;56.52
19751;BME280;4663;49.120;9.730;2023-05-20T12:57:55;97825.88;;;23.52;56.79
19751;BME280;4663;49.120;9.730;2023-05-20T13:00:20;97828.06;;;23.21;57.64
19751;BME280;4663;49.120;9.730;2023-05-20T13:02:46;97825.28;;;23.50;57.28
19751;BME280;4663;49.120;9.730;2023-05-20T13:05:12;97825.09;;;23.22;57.49
19751;BME280;4663;49.120;9.730;2023-05-20T13:07:37;97827.69;;;22.83;56.99
19751;BME280;4663;49.120;9.730;2023-05-20T13:10:03;97843.22;;;23.11;58.97
19751;BME280;4663;49.120;9.730;2023-05-20T13:12:29;97827.41;;;23.13;58.16
19751;BME280;4663;49.120;9.730;2023-05-20T13:14:54;97846.25;;;23.27;58.52
19751;BME280;4663;49.120;9.730;2023-05-20T13:17:20;97821.00;;;23.08;57.41
19751;BME280;4663;49.120;9.730;2023-05-20T13:19:45;97812.50;;;23.38;57.05